createdAt,value
2022-10-15T00:07:55.097Z,18.55
2022-10-15T00:17:56.561Z,18.56
2022-10-15T00:27:57.994Z,18.40
2022-10-15T00:38:00.675Z,18.47
2022-10-15T00:48:04.604Z,18.40
2022-10-15T00:58:17.811Z,18.39
2022-10-15T01:08:19.834Z,18.39
2022-10-15T01:18:28.990Z,18.52
2022-10-15T01:28:43.224Z,18.53
2022-10-15T01:39:00.212Z,18.53
2022-10-15T01:49:05.736Z,18.46
2022-10-15T01:59:10.134Z,18.41
2022-10-15T02:09:38.217Z,18.47
2022-10-15T02:19:48.961Z,18.54
2022-10-15T02:29:52.704Z,18.49
2022-10-15T02:39:54.707Z,18.51
2022-10-15T02:49:56.319Z,18.59
2022-10-15T02:59:58.612Z,18.61
2022-10-15T03:10:02.732Z,18.68
2022-10-15T03:20:05.337Z,18.61
2022-10-15T03:30:11.003Z,18.63
2022-10-15T03:40:14.605Z,18.74
2022-10-15T03:50:18.083Z,18.73
2022-10-15T04:00:20.516Z,18.76
2022-10-15T04:10:23.973Z,18.60
2022-10-15T04:20:25.600Z,18.64
2022-10-15T04:30:27.309Z,18.76
2022-10-15T04:40:33.661Z,18.89
2022-10-15T04:50:35.452Z,18.85
2022-10-15T05:00:54.653Z,18.82
2022-10-15T05:11:14.689Z,18.87
2022-10-15T05:21:17.468Z,18.92
2022-10-15T05:31:23.055Z,18.90
2022-10-15T05:41:30.680Z,18.85
2022-10-15T05:51:32.398Z,18.75
2022-10-15T06:01:42.859Z,18.87
2022-10-15T06:11:44.429Z,18.99
2022-10-15T06:21:53.043Z,18.81
2022-10-15T06:31:55.797Z,18.88
2022-10-15T06:41:57.298Z,19.11
2022-10-15T06:52:08.928Z,19.14
2022-10-15T07:02:11.041Z,19.58
2022-10-15T07:12:12.507Z,19.85
2022-10-15T07:22:13.954Z,20.21
2022-10-15T07:32:17.218Z,20.20
2022-10-15T07:42:18.776Z,20.38
2022-10-15T07:52:20.231Z,20.77
2022-10-15T08:02:25.472Z,20.88
2022-10-15T08:12:28.811Z,20.93
2022-10-15T08:22:30.476Z,21.22
2022-10-15T08:32:33.539Z,21.32
2022-10-15T08:42:42.850Z,21.64
2022-10-15T08:52:47.115Z,22.27
2022-10-15T09:03:20.211Z,22.75
2022-10-15T09:13:31.138Z,22.70
2022-10-15T09:23:34.106Z,23.03
2022-10-15T09:33:38.863Z,23.47
2022-10-15T09:43:44.557Z,24.45
2022-10-15T09:54:01.506Z,24.39
2022-10-15T10:04:10.817Z,23.48
2022-10-15T10:14:23.267Z,25.34
2022-10-15T10:24:31.959Z,25.49
2022-10-15T10:34:35.101Z,25.90
2022-10-15T10:44:39.301Z,26.29
2022-10-15T11:04:44.032Z,26.55
2022-10-15T11:15:27.194Z,24.38
2022-10-15T11:25:34.359Z,25.01
2022-10-15T11:35:53.745Z,25.37
2022-10-15T11:46:28.080Z,26.55
2022-10-15T11:56:38.739Z,27.50
2022-10-15T12:06:47.653Z,27.71
2022-10-15T12:17:04.604Z,27.54
2022-10-15T12:27:15.538Z,27.54
2022-10-15T12:37:19.128Z,27.48
2022-10-15T12:47:51.455Z,26.46
2022-10-15T12:58:23.326Z,27.10
2022-10-15T13:08:26.473Z,28.22
2022-10-15T13:18:31.448Z,28.44
2022-10-15T13:28:36.748Z,26.35
2022-10-15T13:38:41.097Z,26.21
2022-10-15T13:58:47.677Z,25.40
2022-10-15T14:08:52.406Z,25.51
2022-10-15T14:18:58.935Z,25.63
2022-10-15T14:29:01.957Z,25.55
2022-10-15T14:39:39.127Z,25.49
2022-10-15T14:49:40.721Z,24.59
2022-10-15T14:59:42.421Z,24.02
2022-10-15T15:09:47.401Z,24.04
2022-10-15T15:19:51.385Z,23.90
2022-10-15T15:29:53.497Z,23.81
2022-10-15T15:39:56.308Z,23.55
2022-10-15T15:49:57.773Z,23.59
2022-10-15T15:59:59.224Z,23.25
2022-10-15T16:10:03.978Z,23.06
2022-10-15T16:20:05.930Z,23.01
2022-10-15T16:30:08.279Z,22.84
2022-10-15T16:40:10.370Z,22.73
2022-10-15T16:50:11.898Z,22.61
2022-10-15T17:00:13.737Z,22.43
2022-10-15T17:10:15.331Z,22.29
2022-10-15T17:20:16.905Z,22.25
2022-10-15T17:30:18.372Z,22.18
2022-10-15T17:40:19.882Z,21.96
2022-10-15T17:50:21.391Z,21.69
2022-10-15T18:00:23.123Z,21.48
2022-10-15T18:10:24.780Z,21.18
2022-10-15T18:20:26.560Z,20.91
2022-10-15T18:30:28.190Z,20.87
2022-10-15T18:40:38.656Z,20.94
2022-10-15T18:50:43.938Z,20.83
2022-10-15T19:00:45.423Z,20.56
2022-10-15T19:10:47.332Z,20.43
2022-10-15T19:20:48.763Z,20.19
2022-10-15T19:30:59.119Z,20.10
2022-10-15T19:41:04.663Z,20.05
2022-10-15T19:51:06.954Z,20.07
2022-10-15T20:01:09.999Z,19.74
2022-10-15T20:11:12.139Z,19.72
2022-10-15T20:21:15.415Z,19.79
2022-10-15T20:31:28.232Z,20.03
2022-10-15T20:41:29.802Z,20.29
2022-10-15T20:51:31.617Z,20.37
2022-10-15T21:01:34.678Z,20.38
2022-10-15T21:11:41.132Z,20.30
2022-10-15T21:21:42.764Z,20.18
2022-10-15T21:31:44.271Z,20.00
2022-10-15T21:41:45.991Z,19.89
2022-10-15T21:51:48.321Z,19.61
2022-10-15T22:01:49.821Z,19.38
2022-10-15T22:11:51.277Z,19.31
2022-10-15T22:21:52.747Z,19.46
2022-10-15T22:31:55.530Z,19.53
2022-10-15T22:41:57.201Z,19.64
2022-10-15T22:51:58.767Z,19.62
2022-10-15T23:02:00.903Z,19.63
2022-10-15T23:12:02.367Z,19.65
2022-10-15T23:22:03.848Z,19.72
2022-10-15T23:32:05.403Z,19.44
2022-10-15T23:42:07.076Z,19.52
2022-10-15T23:52:08.849Z,19.49
